sensor_id;sensor_type;location;lat;lon;timestamp;pressure;altitude;pressure_sealevel;temperature;humidity
29371;BME280;16357;52.188;7.838;2023-04-24T00:00:35;99277.16;;;14.37;54.06
29371;BME280;16357;52.188;7.838;2023-04-24T00:03:02;99286.31;;;14.36;54.35
29371;BME280;16357;52.188;7.838;2023-04-24T00:05:29;99283.59;;;14.36;53.76
29371;BME280;16357;52.188;7.838;2023-04-24T00:07:56;99280.91;;;14.36;54.00
29371;BME280;16357;52.188;7.838;2023-04-24T00:10:22;99283.59;;;14.36;54.17
29371;BME280;16357;52.188;7.838;2023-04-24T00:12:48;99278.22;;;14.36;53.83
29371;BME280;16357;52.188;7.838;2023-04-24T00:15:15;99286.31;;;14.36;53.39
29371;BME280;16357;52.188;7.838;2023-04-24T00:17:41;99279.28;;;14.35;53.70
29371;BME280;16357;52.188;7.838;2023-04-24T00:20:08;99279.28;;;14.35;53.56
29371;BME280;16357;52.188;7.838;2023-04-24T00:22:36;99276.56;;;14.35;53.56
29371;BME280;16357;52.188;7.838;2023-04-24T00:25:03;99272.00;;;14.36;53.66
29371;BME280;16357;52.188;7.838;2023-04-24T00:27:29;99266.59;;;14.36;53.42
29371;BME280;16357;52.188;7.838;2023-04-24T00:29:56;99260.38;;;14.35;53.29
29371;BME280;16357;52.188;7.838;2023-04-24T00:32:22;99270.31;;;14.35;53.29
29371;BME280;16357;52.188;7.838;2023-04-24T00:34:48;99275.72;;;14.35;53.26
29371;BME280;16357;52.188;7.838;2023-04-24T00:37:15;99273.25;;;14.33;53.03
29371;BME280;16357;52.188;7.838;2023-04-24T00:39:41;99275.94;;;14.33;53.31
29371;BME280;16357;52.188;7.838;2023-04-24T00:42:09;99268.69;;;14.34;53.03
29371;BME280;16357;52.188;7.838;2023-04-24T00:44:36;99267.88;;;14.33;53.22
29371;BME280;16357;52.188;7.838;2023-04-24T00:47:02;99267.88;;;14.33;53.21
29371;BME280;16357;52.188;7.838;2023-04-24T00:49:29;99268.88;;;14.32;53.01
29371;BME280;16357;52.188;7.838;2023-04-24T00:51:55;99267.03;;;14.33;52.85
29371;BME280;16357;52.188;7.838;2023-04-24T00:54:22;99263.72;;;14.31;53.00
29371;BME280;16357;52.188;7.838;2023-04-24T00:57:02;99255.63;;;14.31;52.83
29371;BME280;16357;52.188;7.838;2023-04-24T00:59:29;99257.72;;;14.28;52.93
29371;BME280;16357;52.188;7.838;2023-04-24T01:01:57;99253.13;;;14.29;52.97
29371;BME280;16357;52.188;7.838;2023-04-24T01:04:24;99255.00;;;14.28;52.68
29371;BME280;16357;52.188;7.838;2023-04-24T01:06:51;99258.78;;;14.27;52.83
29371;BME280;16357;52.188;7.838;2023-04-24T01:09:19;99254.19;;;14.28;52.84
29371;BME280;16357;52.188;7.838;2023-04-24T01:11:47;99247.97;;;14.27;52.96
29371;BME280;16357;52.188;7.838;2023-04-24T01:14:13;99249.84;;;14.27;52.66
29371;BME280;16357;52.188;7.838;2023-04-24T01:16:42;99251.69;;;14.26;52.56
29371;BME280;16357;52.188;7.838;2023-04-24T01:19:10;99252.56;;;14.27;52.53
29371;BME280;16357;52.188;7.838;2023-04-24T01:21:37;99246.31;;;14.26;52.41
29371;BME280;16357;52.188;7.838;2023-04-24T01:24:05;99249.00;;;14.26;52.50
29371;BME280;16357;52.188;7.838;2023-04-24T01:26:32;99240.31;;;14.24;52.52
29371;BME280;16357;52.188;7.838;2023-04-24T01:28:59;99235.75;;;14.25;51.92
29371;BME280;16357;52.188;7.838;2023-04-24T01:31:25;99246.75;;;14.23;52.06
29371;BME280;16357;52.188;7.838;2023-04-24T01:33:52;99238.88;;;14.22;51.88
29371;BME280;16357;52.188;7.838;2023-04-24T01:36:19;99254.22;;;14.21;52.35
29371;BME280;16357;52.188;7.838;2023-04-24T01:38:47;99235.56;;;14.20;51.97
29371;BME280;16357;52.188;7.838;2023-04-24T01:41:13;99247.38;;;14.19;51.83
29371;BME280;16357;52.188;7.838;2023-04-24T01:43:39;99243.06;;;14.18;51.99
29371;BME280;16357;52.188;7.838;2023-04-24T01:46:06;99243.06;;;14.18;51.79
29371;BME280;16357;52.188;7.838;2023-04-24T01:48:33;99245.13;;;14.16;51.56
29371;BME280;16357;52.188;7.838;2023-04-24T01:50:59;99241.63;;;14.15;51.38
29371;BME280;16357;52.188;7.838;2023-04-24T01:53:26;99254.28;;;14.15;51.70
29371;BME280;16357;52.188;7.838;2023-04-24T01:55:52;99241.81;;;14.14;51.57
29371;BME280;16357;52.188;7.838;2023-04-24T01:58:19;99241.00;;;14.13;51.78
29371;BME280;16357;52.188;7.838;2023-04-24T02:00:45;99246.19;;;14.15;51.94
29371;BME280;16357;52.188;7.838;2023-04-24T02:03:12;99243.50;;;14.15;51.98
29371;BME280;16357;52.188;7.838;2023-04-24T02:05:38;99251.56;;;14.15;51.68
29371;BME280;16357;52.188;7.838;2023-04-24T02:08:05;99251.56;;;14.15;51.50
29371;BME280;16357;52.188;7.838;2023-04-24T02:10:31;99246.19;;;14.15;51.48
29371;BME280;16357;52.188;7.838;2023-04-24T02:12:57;99249.91;;;14.14;51.76
29371;BME280;16357;52.188;7.838;2023-04-24T02:15:25;99249.91;;;14.14;51.56
29371;BME280;16357;52.188;7.838;2023-04-24T02:17:52;99239.13;;;14.14;51.45
29371;BME280;16357;52.188;7.838;2023-04-24T02:20:18;99243.06;;;14.11;51.71
29371;BME280;16357;52.188;7.838;2023-04-24T02:22:45;99242.06;;;14.12;51.60
29371;BME280;16357;52.188;7.838;2023-04-24T02:25:11;99239.56;;;14.11;51.67
29371;BME280;16357;52.188;7.838;2023-04-24T02:27:37;99246.81;;;14.10;51.63
29371;BME280;16357;52.188;7.838;2023-04-24T02:30:04;99243.31;;;14.10;51.76
29371;BME280;16357;52.188;7.838;2023-04-24T02:32:31;99237.31;;;14.08;51.52
29371;BME280;16357;52.188;7.838;2023-04-24T02:34:57;99236.47;;;14.07;51.76
29371;BME280;16357;52.188;7.838;2023-04-24T02:37:24;99240.22;;;14.06;51.68
29371;BME280;16357;52.188;7.838;2023-04-24T02:39:53;99237.72;;;14.04;51.64
29371;BME280;16357;52.188;7.838;2023-04-24T02:42:22;99244.78;;;14.05;51.68
29371;BME280;16357;52.188;7.838;2023-04-24T02:44:48;99246.88;;;14.03;51.84
29371;BME280;16357;52.188;7.838;2023-04-24T02:47:16;99248.72;;;14.03;51.60
29371;BME280;16357;52.188;7.838;2023-04-24T02:49:43;99244.38;;;14.02;51.74
29371;BME280;16357;52.188;7.838;2023-04-24T02:52:10;99245.22;;;14.02;51.97
29371;BME280;16357;52.188;7.838;2023-04-24T02:54:36;99244.38;;;14.02;52.22
29371;BME280;16357;52.188;7.838;2023-04-24T02:57:03;99239.00;;;14.02;52.17
29371;BME280;16357;52.188;7.838;2023-04-24T02:59:29;99243.56;;;14.01;52.20
29371;BME280;16357;52.188;7.838;2023-04-24T03:01:56;99240.06;;;14.01;51.98
29371;BME280;16357;52.188;7.838;2023-04-24T03:04:22;99237.34;;;14.01;52.03
29371;BME280;16357;52.188;7.838;2023-04-24T03:06:49;99240.25;;;13.99;52.27
29371;BME280;16357;52.188;7.838;2023-04-24T03:09:18;99239.44;;;13.99;52.16
29371;BME280;16357;52.188;7.838;2023-04-24T03:11:44;99245.84;;;13.98;52.10
29371;BME280;16357;52.188;7.838;2023-04-24T03:14:11;99237.16;;;13.96;52.07
29371;BME280;16357;52.188;7.838;2023-04-24T03:16:37;99247.09;;;13.95;52.28
29371;BME280;16357;52.188;7.838;2023-04-24T03:19:04;99257.31;;;13.93;52.34
29371;BME280;16357;52.188;7.838;2023-04-24T03:21:30;99249.41;;;13.92;52.06
29371;BME280;16357;52.188;7.838;2023-04-24T03:23:56;99259.38;;;13.91;52.46
29371;BME280;16357;52.188;7.838;2023-04-24T03:26:25;99256.88;;;13.90;52.21
29371;BME280;16357;52.188;7.838;2023-04-24T03:28:52;99260.63;;;13.89;52.49
29371;BME280;16357;52.188;7.838;2023-04-24T03:31:18;99253.59;;;13.88;52.46
29371;BME280;16357;52.188;7.838;2023-04-24T03:33:47;99258.38;;;13.86;52.48
29371;BME280;16357;52.188;7.838;2023-04-24T03:36:13;99265.00;;;13.83;52.53
29371;BME280;16357;52.188;7.838;2023-04-24T03:38:40;99262.75;;;13.80;52.74
29371;BME280;16357;52.188;7.838;2023-04-24T03:41:06;99262.34;;;13.76;52.48
29371;BME280;16357;52.188;7.838;2023-04-24T03:43:32;99271.09;;;13.72;52.90
29371;BME280;16357;52.188;7.838;2023-04-24T03:46:01;99267.75;;;13.70;52.80
29371;BME280;16357;52.188;7.838;2023-04-24T03:48:27;99263.81;;;13.66;53.12
29371;BME280;16357;52.188;7.838;2023-04-24T03:50:53;99267.56;;;13.65;53.11
29371;BME280;16357;52.188;7.838;2023-04-24T03:53:20;99270.69;;;13.61;52.94
29371;BME280;16357;52.188;7.838;2023-04-24T03:55:46;99270.28;;;13.58;52.97
29371;BME280;16357;52.188;7.838;2023-04-24T03:58:13;99268.84;;;13.55;53.40
29371;BME280;16357;52.188;7.838;2023-04-24T04:00:42;99273.63;;;13.53;53.25
29371;BME280;16357;52.188;7.838;2023-04-24T04:03:10;99263.88;;;13.52;52.95
29371;BME280;16357;52.188;7.838;2023-04-24T04:05:37;99277.78;;;13.49;53.12
29371;BME280;16357;52.188;7.838;2023-04-24T04:08:03;99276.53;;;13.45;53.13
29371;BME280;16357;52.188;7.838;2023-04-24T04:10:30;99284.22;;;13.42;53.23
29371;BME280;16357;52.188;7.838;2023-04-24T04:12:56;99286.28;;;13.39;53.38
29371;BME280;16357;52.188;7.838;2023-04-24T04:15:23;99289.19;;;13.38;53.44
29371;BME280;16357;52.188;7.838;2023-04-24T04:17:49;99282.38;;;13.35;53.62
29371;BME280;16357;52.188;7.838;2023-04-24T04:20:16;99283.63;;;13.33;53.66
29371;BME280;16357;52.188;7.838;2023-04-24T04:22:42;99287.31;;;13.32;53.63
29371;BME280;16357;52.188;7.838;2023-04-24T04:25:10;99297.28;;;13.31;53.71
29371;BME280;16357;52.188;7.838;2023-04-24T04:27:38;99294.81;;;13.30;53.90
29371;BME280;16357;52.188;7.838;2023-04-24T04:30:08;99301.22;;;13.29;54.00
29371;BME280;16357;52.188;7.838;2023-04-24T04:32:35;99296.88;;;13.28;54.11
29371;BME280;16357;52.188;7.838;2023-04-24T04:35:02;99307.66;;;13.28;54.20
29371;BME280;16357;52.188;7.838;2023-04-24T04:37:33;99305.97;;;13.27;54.25
29371;BME280;16357;52.188;7.838;2023-04-24T04:40:00;99303.47;;;13.25;54.50
29371;BME280;16357;52.188;7.838;2023-04-24T04:42:26;99302.66;;;13.25;54.49
29371;BME280;16357;52.188;7.838;2023-04-24T04:44:55;99313.44;;;13.25;54.34
29371;BME280;16357;52.188;7.838;2023-04-24T04:47:23;99311.75;;;13.24;54.45
29371;BME280;16357;52.188;7.838;2023-04-24T04:49:50;99314.69;;;13.22;54.60
29371;BME280;16357;52.188;7.838;2023-04-24T04:52:20;99317.56;;;13.21;54.45
29371;BME280;16357;52.188;7.838;2023-04-24T04:54:46;99325.84;;;13.19;54.60
29371;BME280;16357;52.188;7.838;2023-04-24T04:57:13;99328.75;;;13.17;54.80
29371;BME280;16357;52.188;7.838;2023-04-24T04:59:39;99321.72;;;13.16;54.76
29371;BME280;16357;52.188;7.838;2023-04-24T05:02:07;99330.81;;;13.15;54.90
29371;BME280;16357;52.188;7.838;2023-04-24T05:04:34;99321.09;;;13.14;55.11
29371;BME280;16357;52.188;7.838;2023-04-24T05:07:01;99324.63;;;13.15;54.61
29371;BME280;16357;52.188;7.838;2023-04-24T05:09:27;99325.44;;;13.15;55.08
29371;BME280;16357;52.188;7.838;2023-04-24T05:11:55;99331.44;;;13.17;55.21
29371;BME280;16357;52.188;7.838;2023-04-24T05:14:22;99328.53;;;13.19;55.15
29371;BME280;16357;52.188;7.838;2023-04-24T05:16:48;99332.09;;;13.20;54.85
29371;BME280;16357;52.188;7.838;2023-04-24T05:19:15;99326.28;;;13.23;55.18
29371;BME280;16357;52.188;7.838;2023-04-24T05:21:41;99329.59;;;13.25;55.29
29371;BME280;16357;52.188;7.838;2023-04-24T05:24:08;99324.00;;;13.26;55.23
29371;BME280;16357;52.188;7.838;2023-04-24T05:26:34;99316.75;;;13.27;55.58
29371;BME280;16357;52.188;7.838;2023-04-24T05:29:02;99313.03;;;13.28;55.59
29371;BME280;16357;52.188;7.838;2023-04-24T05:31:28;99312.81;;;13.29;55.21
29371;BME280;16357;52.188;7.838;2023-04-24T05:33:55;99317.19;;;13.30;55.40
29371;BME280;16357;52.188;7.838;2023-04-24T05:36:21;99334.16;;;13.31;55.54
29371;BME280;16357;52.188;7.838;2023-04-24T05:38:47;99322.34;;;13.32;55.58
29371;BME280;16357;52.188;7.838;2023-04-24T05:41:14;99332.09;;;13.33;55.18
29371;BME280;16357;52.188;7.838;2023-04-24T05:43:41;99336.44;;;13.34;55.25
29371;BME280;16357;52.188;7.838;2023-04-24T05:46:07;99322.78;;;13.35;55.16
29371;BME280;16357;52.188;7.838;2023-04-24T05:48:33;99327.34;;;13.35;55.34
29371;BME280;16357;52.188;7.838;2023-04-24T05:51:00;99330.63;;;13.37;55.25
29371;BME280;16357;52.188;7.838;2023-04-24T05:53:26;99331.25;;;13.39;55.17
29371;BME280;16357;52.188;7.838;2023-04-24T05:55:53;99332.06;;;13.39;55.43
29371;BME280;16357;52.188;7.838;2023-04-24T05:58:19;99334.56;;;13.41;55.18
29371;BME280;16357;52.188;7.838;2023-04-24T06:00:45;99329.59;;;13.45;55.01
29371;BME280;16357;52.188;7.838;2023-04-24T06:03:12;99332.06;;;13.46;54.89
29371;BME280;16357;52.188;7.838;2023-04-24T06:05:39;99337.47;;;13.46;54.79
29371;BME280;16357;52.188;7.838;2023-04-24T06:08:06;99333.72;;;13.47;54.94
29371;BME280;16357;52.188;7.838;2023-04-24T06:10:32;99332.69;;;13.48;54.66
29371;BME280;16357;52.188;7.838;2023-04-24T06:12:59;99333.72;;;13.47;54.60
29371;BME280;16357;52.188;7.838;2023-04-24T06:15:29;99333.72;;;13.47;54.37
29371;BME280;16357;52.188;7.838;2023-04-24T06:17:57;99327.50;;;13.47;54.49
29371;BME280;16357;52.188;7.838;2023-04-24T06:20:24;99328.75;;;13.44;54.37
29371;BME280;16357;52.188;7.838;2023-04-24T06:22:50;99339.53;;;13.44;54.42
29371;BME280;16357;52.188;7.838;2023-04-24T06:25:17;99340.59;;;13.43;54.63
29371;BME280;16357;52.188;7.838;2023-04-24T06:27:43;99332.06;;;13.39;54.38
29371;BME280;16357;52.188;7.838;2023-04-24T06:30:10;99332.31;;;13.38;54.45
29371;BME280;16357;52.188;7.838;2023-04-24T06:32:36;99318.84;;;13.38;54.41
29371;BME280;16357;52.188;7.838;2023-04-24T06:35:03;99328.16;;;13.35;54.44
29371;BME280;16357;52.188;7.838;2023-04-24T06:37:30;99337.06;;;13.36;54.49
29371;BME280;16357;52.188;7.838;2023-04-24T06:39:58;99333.53;;;13.35;54.65
29371;BME280;16357;52.188;7.838;2023-04-24T06:42:24;99332.50;;;13.36;54.52
29371;BME280;16357;52.188;7.838;2023-04-24T06:44:51;99332.50;;;13.36;54.57
29371;BME280;16357;52.188;7.838;2023-04-24T06:47:19;99333.13;;;13.38;54.46
29371;BME280;16357;52.188;7.838;2023-04-24T06:49:46;99335.81;;;13.38;54.45
29371;BME280;16357;52.188;7.838;2023-04-24T06:52:12;99334.75;;;13.39;54.22
29371;BME280;16357;52.188;7.838;2023-04-24T06:54:39;99337.25;;;13.41;54.34
29371;BME280;16357;52.188;7.838;2023-04-24T06:57:08;99347.00;;;13.42;54.26
29371;BME280;16357;52.188;7.838;2023-04-24T06:59:37;99354.06;;;13.43;54.48
29371;BME280;16357;52.188;7.838;2023-04-24T07:02:04;99344.91;;;13.44;54.37
29371;BME280;16357;52.188;7.838;2023-04-24T07:04:31;99356.53;;;13.45;54.54
29371;BME280;16357;52.188;7.838;2023-04-24T07:07:03;99360.66;;;13.47;53.69
29371;BME280;16357;52.188;7.838;2023-04-24T07:09:32;99363.59;;;13.46;54.34
29371;BME280;16357;52.188;7.838;2023-04-24T07:12:01;99365.44;;;13.45;54.17
29371;BME280;16357;52.188;7.838;2023-04-24T07:14:27;99364.19;;;13.41;54.36
29371;BME280;16357;52.188;7.838;2023-04-24T07:20:22;99363.56;;;13.39;54.12
29371;BME280;16357;52.188;7.838;2023-04-24T07:22:48;99367.50;;;13.36;54.39
29371;BME280;16357;52.188;7.838;2023-04-24T07:25:15;99364.00;;;13.36;54.43
29371;BME280;16357;52.188;7.838;2023-04-24T07:27:44;99367.75;;;13.35;54.51
29371;BME280;16357;52.188;7.838;2023-04-24T07:30:14;99361.50;;;13.34;54.39
29371;BME280;16357;52.188;7.838;2023-04-24T07:32:41;99369.38;;;13.36;54.37
29371;BME280;16357;52.188;7.838;2023-04-24T07:35:08;99364.41;;;13.39;54.69
29371;BME280;16357;52.188;7.838;2023-04-24T07:37:36;99362.13;;;13.43;54.65
29371;BME280;16357;52.188;7.838;2023-04-24T07:40:07;99371.44;;;13.47;54.56
29371;BME280;16357;52.188;7.838;2023-04-24T07:42:36;99370.00;;;13.51;54.46
29371;BME280;16357;52.188;7.838;2023-04-24T07:45:03;99373.09;;;13.55;54.33
29371;BME280;16357;52.188;7.838;2023-04-24T07:47:30;99371.03;;;13.57;53.79
29371;BME280;16357;52.188;7.838;2023-04-24T07:49:56;99370.78;;;13.58;54.01
29371;BME280;16357;52.188;7.838;2023-04-24T07:52:23;99371.03;;;13.57;54.04
29371;BME280;16357;52.188;7.838;2023-04-24T07:54:52;99362.13;;;13.56;54.19
29371;BME280;16357;52.188;7.838;2023-04-24T07:57:25;99373.31;;;13.53;54.20
29371;BME280;16357;52.188;7.838;2023-04-24T07:59:51;99383.66;;;13.50;54.13
29371;BME280;16357;52.188;7.838;2023-04-24T08:02:20;99384.28;;;13.45;54.42
29371;BME280;16357;52.188;7.838;2023-04-24T08:04:52;99384.72;;;13.42;54.47
29371;BME280;16357;52.188;7.838;2023-04-24T08:07:20;99385.13;;;13.39;54.48
29371;BME280;16357;52.188;7.838;2023-04-24T08:09:47;99389.88;;;13.37;54.63
29371;BME280;16357;52.188;7.838;2023-04-24T08:12:13;99382.22;;;13.34;54.80
29371;BME280;16357;52.188;7.838;2023-04-24T08:14:40;99385.34;;;13.31;54.94
29371;BME280;16357;52.188;7.838;2023-04-24T08:17:07;99395.28;;;13.30;55.18
29371;BME280;16357;52.188;7.838;2023-04-24T08:19:33;99390.72;;;13.31;55.31
29371;BME280;16357;52.188;7.838;2023-04-24T08:21:59;99402.13;;;13.33;55.34
29371;BME280;16357;52.188;7.838;2023-04-24T08:24:26;99388.44;;;13.34;55.18
29371;BME280;16357;52.188;7.838;2023-04-24T08:26:53;99392.56;;;13.37;55.41
29371;BME280;16357;52.188;7.838;2023-04-24T08:29:20;99395.91;;;13.39;55.46
29371;BME280;16357;52.188;7.838;2023-04-24T08:31:47;99399.22;;;13.41;55.14
29371;BME280;16357;52.188;7.838;2023-04-24T08:34:13;99400.88;;;13.42;54.89
29371;BME280;16357;52.188;7.838;2023-04-24T08:36:49;99403.16;;;13.45;54.84
29371;BME280;16357;52.188;7.838;2023-04-24T08:39:17;99403.16;;;13.45;54.87
29371;BME280;16357;52.188;7.838;2023-04-24T08:41:43;99413.09;;;13.45;55.06
29371;BME280;16357;52.188;7.838;2023-04-24T08:44:12;99403.38;;;13.44;55.15
29371;BME280;16357;52.188;7.838;2023-04-24T08:46:40;99410.41;;;13.45;55.31
29371;BME280;16357;52.188;7.838;2023-04-24T08:49:07;99403.16;;;13.45;54.93
29371;BME280;16357;52.188;7.838;2023-04-24T08:51:33;99418.28;;;13.46;54.74
29371;BME280;16357;52.188;7.838;2023-04-24T08:54:02;99418.28;;;13.46;54.86
29371;BME280;16357;52.188;7.838;2023-04-24T08:56:33;99409.16;;;13.47;55.17
29371;BME280;16357;52.188;7.838;2023-04-24T08:59:06;99419.13;;;13.47;54.92
29371;BME280;16357;52.188;7.838;2023-04-24T09:01:33;99407.50;;;13.46;55.07
29371;BME280;16357;52.188;7.838;2023-04-24T09:04:03;99409.97;;;13.48;54.85
29371;BME280;16357;52.188;7.838;2023-04-24T09:07:06;99418.69;;;13.50;54.48
29371;BME280;16357;52.188;7.838;2023-04-24T09:09:35;99420.97;;;13.46;54.50
29371;BME280;16357;52.188;7.838;2023-04-24T09:12:03;99419.53;;;13.44;54.26
29371;BME280;16357;52.188;7.838;2023-04-24T09:14:30;99415.38;;;13.41;54.54
29371;BME280;16357;52.188;7.838;2023-04-24T09:17:02;99421.19;;;13.38;54.55
29371;BME280;16357;52.188;7.838;2023-04-24T09:19:29;99424.91;;;13.37;54.73
29371;BME280;16357;52.188;7.838;2023-04-24T09:21:55;99424.50;;;13.33;55.20
29371;BME280;16357;52.188;7.838;2023-04-24T09:24:22;99440.66;;;13.33;55.06
29371;BME280;16357;52.188;7.838;2023-04-24T09:26:56;99436.31;;;13.32;54.77
29371;BME280;16357;52.188;7.838;2023-04-24T09:29:28;99432.78;;;13.32;55.23
29371;BME280;16357;52.188;7.838;2023-04-24T09:31:55;99442.53;;;13.33;55.44
29371;BME280;16357;52.188;7.838;2023-04-24T09:34:23;99443.16;;;13.35;55.48
29371;BME280;16357;52.188;7.838;2023-04-24T09:36:55;99449.16;;;13.37;55.57
29371;BME280;16357;52.188;7.838;2023-04-24T09:39:29;99437.78;;;13.35;55.94
29371;BME280;16357;52.188;7.838;2023-04-24T09:41:56;99442.13;;;13.36;56.36
29371;BME280;16357;52.188;7.838;2023-04-24T09:44:34;99446.88;;;13.34;56.40
29371;BME280;16357;52.188;7.838;2023-04-24T09:47:00;99456.00;;;13.33;56.68
29371;BME280;16357;52.188;7.838;2023-04-24T09:49:30;99465.72;;;13.34;56.99
29371;BME280;16357;52.188;7.838;2023-04-24T09:52:06;99466.34;;;13.36;57.52
29371;BME280;16357;52.188;7.838;2023-04-24T09:54:33;99470.28;;;13.40;58.00
29371;BME280;16357;52.188;7.838;2023-04-24T09:56:59;99468.44;;;13.47;58.29
29371;BME280;16357;52.188;7.838;2023-04-24T09:59:29;99474.25;;;13.57;58.04
29371;BME280;16357;52.188;7.838;2023-04-24T10:01:55;99479.22;;;13.67;58.15
29371;BME280;16357;52.188;7.838;2023-04-24T10:04:26;99484.16;;;13.77;57.44
29371;BME280;16357;52.188;7.838;2023-04-24T10:06:55;99488.34;;;13.86;57.57
29371;BME280;16357;52.188;7.838;2023-04-24T10:09:24;99491.84;;;13.93;56.44
29371;BME280;16357;52.188;7.838;2023-04-24T10:11:52;99498.06;;;14.00;56.94
29371;BME280;16357;52.188;7.838;2023-04-24T10:14:21;99499.09;;;14.06;56.68
29371;BME280;16357;52.188;7.838;2023-04-24T10:16:49;99499.28;;;14.11;56.67
29371;BME280;16357;52.188;7.838;2023-04-24T10:19:16;99510.69;;;14.13;56.02
29371;BME280;16357;52.188;7.838;2023-04-24T10:21:45;99512.56;;;14.13;56.22
29371;BME280;16357;52.188;7.838;2023-04-24T10:24:16;99518.38;;;14.10;55.97
29371;BME280;16357;52.188;7.838;2023-04-24T10:26:44;99527.09;;;14.05;55.63
29371;BME280;16357;52.188;7.838;2023-04-24T10:29:12;99528.13;;;13.97;55.80
29371;BME280;16357;52.188;7.838;2023-04-24T10:31:39;99538.13;;;13.90;55.80
29371;BME280;16357;52.188;7.838;2023-04-24T10:34:06;99532.31;;;13.80;55.21
29371;BME280;16357;52.188;7.838;2023-04-24T10:36:34;99530.00;;;13.70;55.19
29371;BME280;16357;52.188;7.838;2023-04-24T10:39:03;99543.88;;;13.60;55.18
29371;BME280;16357;52.188;7.838;2023-04-24T10:41:32;99529.16;;;13.50;56.01
29371;BME280;16357;52.188;7.838;2023-04-24T10:44:12;99542.00;;;13.41;55.65
29371;BME280;16357;52.188;7.838;2023-04-24T10:46:43;99547.59;;;13.33;55.55
29371;BME280;16357;52.188;7.838;2023-04-24T10:49:10;99541.50;;;13.24;55.68
29371;BME280;16357;52.188;7.838;2023-04-24T10:51:51;99562.00;;;13.18;55.85
29371;BME280;16357;52.188;7.838;2023-04-24T10:54:33;99559.28;;;13.12;56.30
29371;BME280;16357;52.188;7.838;2023-04-24T10:59:46;99567.09;;;13.00;56.86
29371;BME280;16357;52.188;7.838;2023-04-24T11:02:17;99579.31;;;12.96;56.80
29371;BME280;16357;52.188;7.838;2023-04-24T11:04:44;99571.84;;;12.91;57.61
29371;BME280;16357;52.188;7.838;2023-04-24T11:07:12;99584.03;;;12.87;57.95
29371;BME280;16357;52.188;7.838;2023-04-24T11:09:38;99588.59;;;12.87;57.96
29371;BME280;16357;52.188;7.838;2023-04-24T11:12:10;99607.00;;;12.83;57.98
29371;BME280;16357;52.188;7.838;2023-04-24T11:17:36;99619.59;;;12.76;58.50
29371;BME280;16357;52.188;7.838;2023-04-24T11:20:10;99620.19;;;12.71;58.45
29371;BME280;16357;52.188;7.838;2023-04-24T11:22:54;99631.75;;;12.65;58.99
29371;BME280;16357;52.188;7.838;2023-04-24T11:25:21;99633.19;;;12.61;59.66
29371;BME280;16357;52.188;7.838;2023-04-24T11:28:03;99638.31;;;12.56;59.28
29371;BME280;16357;52.188;7.838;2023-04-24T11:30:31;99637.22;;;12.50;59.24
29371;BME280;16357;52.188;7.838;2023-04-24T11:33:02;99635.53;;;12.43;59.21
29371;BME280;16357;52.188;7.838;2023-04-24T11:35:29;99640.66;;;12.38;59.98
29371;BME280;16357;52.188;7.838;2023-04-24T11:38:02;99647.44;;;12.34;60.29
29371;BME280;16357;52.188;7.838;2023-04-24T11:40:49;99662.13;;;12.31;60.57
29371;BME280;16357;52.188;7.838;2023-04-24T11:43:16;99661.69;;;12.27;60.66
29371;BME280;16357;52.188;7.838;2023-04-24T11:45:48;99667.88;;;12.28;60.25
29371;BME280;16357;52.188;7.838;2023-04-24T11:48:19;99668.06;;;12.26;60.25
29371;BME280;16357;52.188;7.838;2023-04-24T11:50:48;99679.88;;;12.25;60.76
29371;BME280;16357;52.188;7.838;2023-04-24T11:53:15;99680.69;;;12.26;60.85
29371;BME280;16357;52.188;7.838;2023-04-24T11:55:41;99684.19;;;12.26;60.96
29371;BME280;16357;52.188;7.838;2023-04-24T11:58:07;99692.91;;;12.28;61.20
29371;BME280;16357;52.188;7.838;2023-04-24T12:00:34;99691.88;;;12.29;61.18
29371;BME280;16357;52.188;7.838;2023-04-24T12:03:10;99711.81;;;12.35;61.07
29371;BME280;16357;52.188;7.838;2023-04-24T12:05:38;99712.25;;;12.39;61.31
29371;BME280;16357;52.188;7.838;2023-04-24T12:08:05;99713.72;;;12.41;61.38
29371;BME280;16357;52.188;7.838;2023-04-24T12:10:33;99717.69;;;12.45;61.96
29371;BME280;16357;52.188;7.838;2023-04-24T12:13:00;99720.00;;;12.48;nan
29371;BME280;16357;52.188;7.838;2023-04-24T12:15:27;99731.19;;;12.52;61.41
29371;BME280;16357;52.188;7.838;2023-04-24T12:17:55;99738.88;;;12.55;61.17
29371;BME280;16357;52.188;7.838;2023-04-24T12:20:30;99752.13;;;12.57;60.95
29371;BME280;16357;52.188;7.838;2023-04-24T12:22:59;99754.00;;;12.56;60.92
29371;BME280;16357;52.188;7.838;2023-04-24T12:25:30;99757.91;;;12.54;60.43
29371;BME280;16357;52.188;7.838;2023-04-24T12:30:31;99770.78;;;12.37;61.88
29371;BME280;16357;52.188;7.838;2023-04-24T12:32:58;99770.63;;;12.23;62.48
29371;BME280;16357;52.188;7.838;2023-04-24T12:35:31;99773.63;;;12.14;62.45
29371;BME280;16357;52.188;7.838;2023-04-24T12:38:10;99773.13;;;12.03;62.81
29371;BME280;16357;52.188;7.838;2023-04-24T12:40:38;99782.13;;;11.96;62.89
29371;BME280;16357;52.188;7.838;2023-04-24T12:43:18;99787.03;;;11.92;62.92
29371;BME280;16357;52.188;7.838;2023-04-24T12:45:48;99784.09;;;11.87;62.74
29371;BME280;16357;52.188;7.838;2023-04-24T12:48:15;99784.44;;;11.84;63.06
29371;BME280;16357;52.188;7.838;2023-04-24T12:50:42;99782.31;;;11.79;62.90
29371;BME280;16357;52.188;7.838;2023-04-24T12:53:12;99795.13;;;11.77;62.59
29371;BME280;16357;52.188;7.838;2023-04-24T12:55:38;99801.69;;;11.75;62.76
29371;BME280;16357;52.188;7.838;2023-04-24T12:58:05;99809.09;;;11.73;63.13
29371;BME280;16357;52.188;7.838;2023-04-24T13:00:32;99807.63;;;11.70;63.68
29371;BME280;16357;52.188;7.838;2023-04-24T13:02:59;99808.66;;;11.69;63.95
29371;BME280;16357;52.188;7.838;2023-04-24T13:05:25;99817.34;;;11.71;64.57
29371;BME280;16357;52.188;7.838;2023-04-24T13:07:52;99807.91;;;11.75;64.63
29371;BME280;16357;52.188;7.838;2023-04-24T13:10:18;99819.56;;;11.82;64.81
29371;BME280;16357;52.188;7.838;2023-04-24T13:12:45;99826.72;;;11.90;64.46
29371;BME280;16357;52.188;7.838;2023-04-24T13:15:12;99816.69;;;11.99;64.53